Time;durP1;ratioP1;P1;durP2;ratioP2;P2;SDS_P1;SDS_P2;PMS_P1;PMS_P2;Temp;Humidity;BMP_temperature;BMP_pressure;BME280_temperature;BME280_humidity;BME280_pressure;Samples;Min_cycle;Max_cycle;Signal;HPM_P1;HPM_P2
2023/09/15 00:00:29;;;;;;;15.60;13.50;;;;;;;18.86;100.00;100985.00;109651;1244;63202;-76
2023/09/15 00:03:18;;;;;;;15.30;13.10;;;;;;;18.80;100.00;100982.76;109706;1244;57409;-76
2023/09/15 00:05:47;;;;;;;17.60;13.30;;;;;;;18.81;100.00;100986.03;109556;1245;62908;-77
2023/09/15 00:08:16;;;;;;;16.20;14.40;;;;;;;18.82;100.00;100989.31;109633;1244;72540;-77
2023/09/15 00:10:46;;;;;;;19.60;14.00;;;;;;;18.79;100.00;100989.55;109645;1243;59653;-74
2023/09/15 00:13:15;;;;;;;20.40;14.40;;;;;;;18.77;100.00;100992.05;109633;1244;73721;-74
2023/09/15 00:15:45;;;;;;;16.60;14.80;;;;;;;18.75;100.00;100995.70;109501;1243;62332;-75
2023/09/15 00:18:14;;;;;;;20.00;14.40;;;;;;;18.72;100.00;101002.52;109623;1243;61495;-75
2023/09/15 00:20:42;;;;;;;15.90;14.20;;;;;;;18.68;100.00;101000.77;109644;1244;73900;-76
2023/09/15 00:23:11;;;;;;;17.30;14.80;;;;;;;18.63;100.00;100989.08;109655;1243;61524;-76
2023/09/15 00:25:40;;;;;;;21.80;15.50;;;;;;;18.56;100.00;100986.63;109619;1244;60068;-77
2023/09/15 00:28:09;;;;;;;24.20;15.60;;;;;;;18.55;100.00;100992.05;109644;1244;73888;-76
2023/09/15 00:30:39;;;;;;;20.00;15.50;;;;;;;18.56;100.00;100995.49;109523;1245;62772;-79
2023/09/15 00:33:07;;;;;;;19.40;16.30;;;;;;;18.55;100.00;100995.89;109676;1244;61236;-76
2023/09/15 00:35:36;;;;;;;22.50;17.10;;;;;;;18.53;100.00;100997.09;109642;1244;62541;-76
2023/09/15 00:38:05;;;;;;;19.70;16.60;;;;;;;18.49;100.00;101000.50;109630;1244;60725;-76
2023/09/15 00:40:34;;;;;;;21.50;16.40;;;;;;;18.48;100.00;101002.45;109517;1244;69621;-76
2023/09/15 00:43:03;;;;;;;22.70;17.50;;;;;;;18.47;100.00;101005.84;109511;1244;73602;-75
2023/09/15 00:45:32;;;;;;;19.70;16.70;;;;;;;18.47;100.00;101006.58;109476;1245;60336;-76
2023/09/15 00:48:02;;;;;;;21.20;16.80;;;;;;;18.47;100.00;101008.35;109610;1244;60342;-76
2023/09/15 00:50:32;;;;;;;19.10;16.20;;;;;;;18.46;100.00;101013.17;109430;1243;74098;-75
2023/09/15 00:53:14;;;;;;;20.90;17.10;;;;;;;18.46;100.00;101011.13;109478;1245;61003;-76
2023/09/15 00:55:44;;;;;;;23.20;17.80;;;;;;;18.45;100.00;101014.90;109478;1244;59765;-75
2023/09/15 00:58:16;;;;;;;18.80;16.70;;;;;;;18.46;100.00;101018.17;109524;1244;64932;-75
2023/09/15 01:00:46;;;;;;;20.50;17.30;;;;;;;18.47;100.00;101018.28;109441;1247;57152;-75
2023/09/15 01:03:20;;;;;;;20.20;17.10;;;;;;;18.47;100.00;101014.48;109487;1244;57742;-76
2023/09/15 01:05:49;;;;;;;22.00;17.80;;;;;;;18.48;100.00;101013.36;109433;1245;63230;-77
2023/09/15 01:08:18;;;;;;;21.20;17.30;;;;;;;18.49;100.00;101017.83;109448;1243;72107;-77
2023/09/15 01:10:49;;;;;;;21.60;17.80;;;;;;;18.48;100.00;101021.48;109484;1243;70728;-77
2023/09/15 01:13:18;;;;;;;21.90;17.50;;;;;;;18.49;100.00;101027.73;109484;1244;74291;-75
2023/09/15 01:16:01;;;;;;;23.60;18.40;;;;;;;18.59;100.00;101026.23;109559;1243;63234;-77
2023/09/15 01:19:18;;;;;;;27.10;18.10;;;;;;;18.56;100.00;101028.46;109416;1247;57210;-75
2023/09/15 01:22:21;;;;;;;26.30;21.40;;;;;;;18.53;100.00;101033.27;109508;1245;62735;-75
2023/09/15 01:25:14;;;;;;;26.20;21.50;;;;;;;18.42;100.00;101034.40;109596;1243;71932;-75
2023/09/15 01:28:36;;;;;;;27.60;21.60;;;;;;;18.44;100.00;101040.17;109620;1243;60886;-75
2023/09/15 01:31:07;;;;;;;31.20;22.60;;;;;;;18.42;100.00;101044.45;109597;1243;73637;-74
2023/09/15 01:33:38;;;;;;;29.50;22.70;;;;;;;18.47;100.00;101046.95;109534;1247;57072;-76
2023/09/15 01:36:06;;;;;;;28.10;22.00;;;;;;;18.50;100.00;101052.73;109495;1247;57185;-77
2023/09/15 01:38:35;;;;;;;27.10;21.20;;;;;;;18.49;100.00;101052.64;109657;1245;61999;-76
2023/09/15 01:41:04;;;;;;;33.70;22.70;;;;;;;18.46;100.00;101054.28;109563;1243;71996;-77
2023/09/15 01:43:32;;;;;;;26.10;21.10;;;;;;;18.47;100.00;101055.11;109671;1243;62214;-75
2023/09/15 01:46:01;;;;;;;25.30;20.90;;;;;;;18.48;100.00;101056.77;109626;1244;62999;-75
2023/09/15 01:48:31;;;;;;;26.00;21.60;;;;;;;18.49;100.00;101056.58;109634;1244;57124;-75
2023/09/15 01:51:02;;;;;;;26.80;22.50;;;;;;;18.52;100.00;101059.48;109629;1245;57220;-76
2023/09/15 01:53:33;;;;;;;28.90;22.30;;;;;;;18.55;100.00;101060.77;109367;1249;62897;-76
2023/09/15 01:56:02;;;;;;;29.40;22.90;;;;;;;18.65;100.00;101061.89;109503;1246;62036;-76
2023/09/15 01:58:31;;;;;;;31.70;24.50;;;;;;;18.60;100.00;101061.95;109393;1244;70426;-77
2023/09/15 02:01:00;;;;;;;27.60;23.40;;;;;;;18.62;100.00;101063.46;109423;1244;74155;-78
2023/09/15 02:03:29;;;;;;;30.80;23.90;;;;;;;18.62;100.00;101062.73;109592;1245;57430;-78
2023/09/15 02:06:03;;;;;;;25.60;22.00;;;;;;;18.61;100.00;101067.61;109520;1244;57271;-77
2023/09/15 02:08:32;;;;;;;27.10;22.70;;;;;;;18.59;100.00;101069.89;109526;1243;73550;-77
2023/09/15 02:11:01;;;;;;;30.80;23.70;;;;;;;18.57;100.00;101072.11;109388;1245;61322;-77
2023/09/15 02:13:30;;;;;;;31.20;24.00;;;;;;;18.58;100.00;101076.23;109510;1243;70332;-77
2023/09/15 02:15:58;;;;;;;26.80;21.50;;;;;;;18.58;100.00;101076.55;109344;1243;74868;-77
2023/09/15 02:18:28;;;;;;;27.60;22.00;;;;;;;18.60;100.00;101080.41;109331;1244;57694;-76
2023/09/15 02:20:57;;;;;;;27.60;22.10;;;;;;;18.63;100.00;101076.20;109332;1242;58763;-76
2023/09/15 02:23:26;;;;;;;28.10;22.10;;;;;;;18.60;100.00;101077.95;109273;1245;62768;-76
2023/09/15 02:25:56;;;;;;;27.00;22.10;;;;;;;18.64;100.00;101075.41;109275;1244;71433;-76
2023/09/15 02:28:25;;;;;;;22.90;20.30;;;;;;;18.65;100.00;101078.27;109284;1248;68790;-76
2023/09/15 02:30:56;;;;;;;23.30;20.80;;;;;;;18.76;100.00;101083.77;109415;1244;74158;-77
2023/09/15 02:33:25;;;;;;;24.90;19.90;;;;;;;18.72;100.00;101080.69;109379;1247;62847;-76
2023/09/15 02:35:54;;;;;;;29.40;23.00;;;;;;;18.64;100.00;101081.05;109377;1244;57440;-76
2023/09/15 02:38:23;;;;;;;29.50;22.10;;;;;;;18.57;100.00;101082.51;109307;1243;73530;-75
2023/09/15 02:40:51;;;;;;;27.70;21.90;;;;;;;18.61;100.00;101081.94;109645;1245;62859;-76
2023/09/15 02:43:21;;;;;;;27.20;22.70;;;;;;;18.66;100.00;101084.23;109675;1243;69778;-75
2023/09/15 02:45:50;;;;;;;29.20;22.50;;;;;;;18.65;100.00;101083.09;109476;1244;74061;-76
2023/09/15 02:48:19;;;;;;;24.80;20.90;;;;;;;18.68;100.00;101085.30;109483;1245;57711;-76
2023/09/15 02:50:48;;;;;;;24.90;19.90;;;;;;;18.73;100.00;101088.86;109457;1245;57174;-76
2023/09/15 02:53:17;;;;;;;23.80;19.50;;;;;;;18.76;100.00;101088.66;109549;1246;62841;-75
2023/09/15 02:56:00;;;;;;;24.60;20.40;;;;;;;18.76;100.00;101090.27;109503;1245;71522;-80
2023/09/15 02:58:32;;;;;;;21.70;18.30;;;;;;;18.79;100.00;101090.46;109450;1244;70939;-77
2023/09/15 03:01:13;;;;;;;23.50;18.90;;;;;;;18.83;100.00;101092.74;109335;1248;63493;-76
2023/09/15 03:03:48;;;;;;;22.10;19.10;;;;;;;18.82;100.00;101096.73;109442;1248;57423;-77
2023/09/15 03:06:19;;;;;;;23.60;18.80;;;;;;;18.85;100.00;101095.53;109588;1244;61135;-79
2023/09/15 03:08:48;;;;;;;22.80;18.60;;;;;;;18.85;100.00;101093.29;109521;1244;75088;-78
2023/09/15 03:11:17;;;;;;;23.20;18.30;;;;;;;18.87;100.00;101094.98;109133;1244;551246;-76
2023/09/15 03:13:46;;;;;;;20.90;17.30;;;;;;;18.87;100.00;101098.55;109515;1244;62172;-78
2023/09/15 03:16:16;;;;;;;20.10;17.60;;;;;;;18.89;100.00;101099.01;109536;1244;73266;-77
2023/09/15 03:18:46;;;;;;;18.80;16.00;;;;;;;18.91;100.00;101100.64;109475;1245;63272;-76
2023/09/15 03:21:19;;;;;;;17.60;14.20;;;;;;;18.88;100.00;101105.64;109677;1245;62187;-76
2023/09/15 03:23:49;;;;;;;17.70;15.40;;;;;;;18.89;100.00;101106.84;109465;1245;63351;-78
2023/09/15 03:26:18;;;;;;;18.40;15.50;;;;;;;18.87;100.00;101110.92;109412;1244;70384;-75
2023/09/15 03:28:50;;;;;;;18.60;14.90;;;;;;;18.86;100.00;101115.02;109532;1241;59569;-74
2023/09/15 03:31:19;;;;;;;17.90;14.90;;;;;;;18.85;100.00;101119.22;109524;1244;72657;-75
2023/09/15 03:33:48;;;;;;;17.10;14.00;;;;;;;18.82;100.00;101121.45;109455;1245;62645;-74
2023/09/15 03:36:17;;;;;;;18.00;14.60;;;;;;;18.77;100.00;101122.11;109450;1243;59464;-75
2023/09/15 03:38:47;;;;;;;17.70;14.50;;;;;;;18.78;100.00;101127.45;109428;1247;73859;-68
2023/09/15 03:41:16;;;;;;;18.40;14.50;;;;;;;18.71;100.00;101127.66;109484;1244;61103;-68
2023/09/15 03:43:45;;;;;;;13.50;11.90;;;;;;;18.70;100.00;101129.33;109491;1243;59754;-71
2023/09/15 03:46:13;;;;;;;16.50;13.80;;;;;;;18.71;100.00;101131.14;109473;1245;72811;-70
2023/09/15 03:48:42;;;;;;;16.40;13.60;;;;;;;18.67;100.00;101131.77;109477;1246;57215;-71
2023/09/15 03:51:11;;;;;;;15.30;13.40;;;;;;;18.61;100.00;101133.06;109635;1243;57681;-71
2023/09/15 03:53:40;;;;;;;14.90;13.30;;;;;;;18.55;100.00;101137.02;109620;1244;73452;-71
2023/09/15 03:56:08;;;;;;;17.30;13.50;;;;;;;18.57;100.00;101142.27;109610;1244;71517;-70
2023/09/15 03:58:37;;;;;;;14.80;13.20;;;;;;;18.58;100.00;101145.41;109447;1244;59784;-69
2023/09/15 04:01:09;;;;;;;15.40;13.30;;;;;;;18.53;100.00;101152.12;109515;1244;72802;-69
2023/09/15 04:03:38;;;;;;;18.00;12.20;;;;;;;18.58;100.00;101158.20;109596;1244;62559;-67
2023/09/15 04:06:06;;;;;;;14.20;12.50;;;;;;;18.55;100.00;101162.73;109640;1243;61406;-68
2023/09/15 04:08:35;;;;;;;13.80;11.90;;;;;;;18.52;100.00;101163.88;109470;1244;63515;-67
2023/09/15 04:11:07;;;;;;;14.00;12.50;;;;;;;18.50;100.00;101167.45;109498;1242;60749;-67
2023/09/15 04:13:36;;;;;;;15.60;12.60;;;;;;;18.51;100.00;101172.97;109472;1246;71248;-71
2023/09/15 04:16:05;;;;;;;13.90;12.00;;;;;;;18.51;100.00;101175.05;109453;1243;74113;-70
2023/09/15 04:18:34;;;;;;;18.30;12.90;;;;;;;18.55;100.00;101176.84;109671;1244;62298;-74
2023/09/15 04:21:11;;;;;;;14.90;11.90;;;;;;;18.61;100.00;101179.27;104896;1277;599622;-71
2023/09/15 04:23:40;;;;;;;14.90;11.50;;;;;;;18.59;100.00;101179.27;106534;1259;59096;-72
2023/09/15 04:26:09;;;;;;;15.10;11.60;;;;;;;18.60;100.00;101178.50;106493;1258;59077;-74
2023/09/15 04:28:38;;;;;;;13.10;11.70;;;;;;;18.57;100.00;101182.08;106455;1257;72284;-73
2023/09/15 04:31:08;;;;;;;15.30;12.40;;;;;;;18.55;100.00;101183.39;106637;1263;72469;-73
2023/09/15 04:33:37;;;;;;;14.20;11.70;;;;;;;18.52;100.00;101185.61;106218;1262;509002;-73
2023/09/15 04:36:07;;;;;;;16.70;12.90;;;;;;;18.57;100.00;101186.73;107282;1252;63022;-75
2023/09/15 04:38:37;;;;;;;16.00;12.90;;;;;;;18.58;100.00;101187.37;107207;1249;59157;-73
2023/09/15 04:41:06;;;;;;;14.70;12.50;;;;;;;18.63;100.00;101190.17;107226;1250;60204;-75
2023/09/15 04:43:36;;;;;;;15.70;12.10;;;;;;;18.62;100.00;101194.72;107309;1257;72833;-80
2023/09/15 04:46:05;;;;;;;15.00;12.20;;;;;;;18.65;100.00;101199.27;107250;1257;72550;-77
2023/09/15 04:48:34;;;;;;;13.90;11.80;;;;;;;18.67;100.00;101198.77;107240;1249;59601;-78
2023/09/15 04:51:04;;;;;;;14.70;12.20;;;;;;;18.67;100.00;101200.01;107178;1257;73821;-72
2023/09/15 04:53:33;;;;;;;14.30;12.10;;;;;;;18.62;100.00;101202.60;107160;1255;63499;-72
2023/09/15 04:56:03;;;;;;;13.70;11.20;;;;;;;18.60;100.00;101201.58;107191;1248;61494;-72
2023/09/15 04:58:32;;;;;;;13.90;11.50;;;;;;;18.60;100.00;101202.78;107142;1247;62501;-71
2023/09/15 05:01:03;;;;;;;15.80;11.90;;;;;;;18.66;100.00;101208.60;107137;1257;63012;-72
2023/09/15 05:03:33;;;;;;;16.00;11.90;;;;;;;18.69;100.00;101212.20;107214;1257;59056;-74
2023/09/15 05:06:05;;;;;;;13.70;11.30;;;;;;;18.72;100.00;101212.39;107161;1257;73189;-73
2023/09/15 05:08:34;;;;;;;14.60;11.70;;;;;;;18.71;100.00;101213.02;107105;1255;59086;-72
2023/09/15 05:11:04;;;;;;;15.00;12.30;;;;;;;18.75;100.00;101213.55;107017;1249;59169;-72
2023/09/15 05:13:32;;;;;;;14.10;11.60;;;;;;;18.81;100.00;101216.85;107084;1248;71903;-73
2023/09/15 05:16:03;;;;;;;15.60;11.90;;;;;;;18.82;100.00;101219.52;107159;1244;72743;-72
2023/09/15 05:18:32;;;;;;;16.80;12.50;;;;;;;18.88;100.00;101222.84;107124;1255;59952;-72
2023/09/15 05:21:02;;;;;;;14.00;11.10;;;;;;;18.86;100.00;101223.16;107205;1251;72727;-71
2023/09/15 05:23:32;;;;;;;15.40;12.00;;;;;;;18.91;100.00;101228.16;107263;1245;58979;-73
2023/09/15 05:26:01;;;;;;;15.10;12.20;;;;;;;18.92;100.00;101227.14;107066;1248;58945;-73
2023/09/15 05:28:30;;;;;;;14.40;11.70;;;;;;;18.98;100.00;101229.25;107158;1244;61171;-71
2023/09/15 05:31:00;;;;;;;14.60;12.20;;;;;;;19.03;100.00;101234.75;107145;1249;60878;-73
2023/09/15 05:33:31;;;;;;;16.30;12.30;;;;;;;19.04;100.00;101232.14;107160;1244;70410;-72
2023/09/15 05:36:00;;;;;;;16.70;12.60;;;;;;;19.06;100.00;101232.69;107195;1245;65675;-72
2023/09/15 05:38:29;;;;;;;15.20;12.60;;;;;;;19.10;100.00;101231.76;107192;1248;59012;-72
2023/09/15 05:40:58;;;;;;;16.40;12.10;;;;;;;19.14;100.00;101235.79;107133;1251;60304;-72
2023/09/15 05:43:28;;;;;;;16.70;12.50;;;;;;;19.19;100.00;101237.21;107192;1249;62693;-74
2023/09/15 05:45:57;;;;;;;14.60;11.90;;;;;;;19.20;100.00;101239.21;107249;1248;61249;-74
2023/09/15 05:48:26;;;;;;;18.40;12.80;;;;;;;19.18;100.00;101241.31;107064;1244;59837;-71
2023/09/15 05:50:55;;;;;;;15.20;12.90;;;;;;;19.18;100.00;101248.41;107012;1256;73106;-71
2023/09/15 05:53:23;;;;;;;16.10;13.90;;;;;;;19.22;100.00;101250.35;106979;1248;61760;-74
2023/09/15 05:55:53;;;;;;;16.50;13.10;;;;;;;19.23;100.00;101251.45;107364;1254;61316;-76
2023/09/15 05:58:22;;;;;;;15.60;13.40;;;;;;;19.22;100.00;101258.23;107371;1252;61883;-75
2023/09/15 06:00:55;;;;;;;16.30;13.20;;;;;;;19.23;100.00;101262.39;107450;1251;72228;-75
2023/09/15 06:03:25;;;;;;;16.60;13.30;;;;;;;19.25;100.00;101264.61;107419;1254;59735;-71
2023/09/15 06:05:54;;;;;;;15.90;13.00;;;;;;;19.27;100.00;101265.13;107399;1243;63443;-76
2023/09/15 06:08:23;;;;;;;17.50;13.20;;;;;;;19.24;100.00;101267.88;107380;1244;59099;-73
2023/09/15 06:10:53;;;;;;;16.80;13.40;;;;;;;19.25;100.00;101270.70;107421;1252;57594;-73
2023/09/15 06:13:22;;;;;;;15.40;12.80;;;;;;;19.22;100.00;101276.30;107392;1242;72717;-70
2023/09/15 06:15:51;;;;;;;16.80;13.30;;;;;;;19.29;100.00;101277.86;107360;1246;71745;-72
2023/09/15 06:18:20;;;;;;;15.90;13.50;;;;;;;19.31;100.00;101274.42;107501;1241;69711;-73
2023/09/15 06:20:50;;;;;;;16.80;13.10;;;;;;;19.36;100.00;101278.21;107469;1244;73660;-71
2023/09/15 06:23:18;;;;;;;16.10;13.50;;;;;;;19.41;100.00;101280.00;107532;1251;63452;-74
2023/09/15 06:25:48;;;;;;;18.20;12.90;;;;;;;19.48;100.00;101280.04;107466;1246;61153;-73
2023/09/15 06:28:17;;;;;;;17.20;14.00;;;;;;;19.50;100.00;101281.70;107507;1253;62667;-72
2023/09/15 06:30:50;;;;;;;17.80;13.70;;;;;;;19.43;100.00;101286.38;107462;1241;73111;-73
2023/09/15 06:33:19;;;;;;;16.90;13.30;;;;;;;19.46;100.00;101287.65;107441;1245;61387;-71
2023/09/15 06:35:48;;;;;;;17.40;13.90;;;;;;;19.51;100.00;101288.91;107422;1254;62787;-72
2023/09/15 06:38:18;;;;;;;15.80;14.10;;;;;;;19.53;100.00;101295.39;107344;1254;62019;-71
2023/09/15 06:40:47;;;;;;;15.80;12.70;;;;;;;19.56;100.00;101299.02;107389;1254;57540;-71
2023/09/15 06:43:16;;;;;;;22.00;15.00;;;;;;;19.57;100.00;101300.81;107342;1245;61513;-71
2023/09/15 06:45:45;;;;;;;17.20;14.00;;;;;;;19.54;100.00;101301.65;107457;1254;61499;-70
2023/09/15 06:48:14;;;;;;;17.30;14.10;;;;;;;19.60;100.00;101304.66;107621;1252;59976;-70
2023/09/15 06:50:43;;;;;;;17.70;14.00;;;;;;;19.60;100.00;101304.64;107480;1244;63728;-73
2023/09/15 06:53:12;;;;;;;20.60;15.60;;;;;;;19.58;100.00;101312.75;107343;1245;62590;-71
2023/09/15 06:55:41;;;;;;;17.20;13.90;;;;;;;19.50;100.00;101315.49;107335;1252;60822;-70
2023/09/15 06:58:10;;;;;;;20.00;14.20;;;;;;;19.54;100.00;101316.79;107399;1254;62202;-70
2023/09/15 07:00:40;;;;;;;17.00;13.60;;;;;;;19.51;100.00;101320.47;107322;1241;71591;-70
2023/09/15 07:03:09;;;;;;;20.20;15.30;;;;;;;19.53;100.00;101321.71;107325;1246;60117;-71
2023/09/15 07:05:39;;;;;;;17.50;14.40;;;;;;;19.52;100.00;101326.41;107366;1245;63536;-70
2023/09/15 07:08:08;;;;;;;19.80;14.50;;;;;;;19.52;100.00;101328.89;107262;1245;61982;-71
2023/09/15 07:10:37;;;;;;;20.00;14.50;;;;;;;19.56;100.00;101324.02;107215;1245;61737;-71
2023/09/15 07:13:06;;;;;;;17.80;14.40;;;;;;;19.56;100.00;101330.08;107208;1244;73483;-72
2023/09/15 07:15:36;;;;;;;18.80;14.70;;;;;;;19.55;100.00;101333.19;107256;1251;72391;-72
2023/09/15 07:18:05;;;;;;;18.50;14.80;;;;;;;19.54;100.00;101333.31;107258;1241;62948;-71
2023/09/15 07:20:34;;;;;;;18.80;15.40;;;;;;;19.63;100.00;101329.77;107363;1251;74136;-72
2023/09/15 07:23:03;;;;;;;15.80;14.00;;;;;;;19.64;100.00;101329.29;107291;1246;59043;-70
2023/09/15 07:25:32;;;;;;;16.80;12.50;;;;;;;19.72;100.00;101335.03;107230;1246;59580;-72
2023/09/15 07:28:03;;;;;;;17.80;14.40;;;;;;;19.75;100.00;101335.92;107264;1245;73280;-72
2023/09/15 07:30:33;;;;;;;19.80;14.90;;;;;;;19.75;100.00;101338.90;107196;1246;61417;-71
2023/09/15 07:33:03;;;;;;;17.60;14.80;;;;;;;19.87;100.00;101339.00;107185;1254;69658;-72
2023/09/15 07:35:32;;;;;;;17.90;14.40;;;;;;;19.91;100.00;101341.56;107230;1245;63056;-72
2023/09/15 07:38:02;;;;;;;18.90;14.30;;;;;;;19.97;100.00;101341.73;107307;1244;59152;-73
2023/09/15 07:40:31;;;;;;;17.90;14.80;;;;;;;20.01;100.00;101342.34;107324;1245;61255;-71
2023/09/15 07:43:00;;;;;;;17.40;15.10;;;;;;;20.06;100.00;101339.52;107351;1245;61758;-74
2023/09/15 07:45:29;;;;;;;18.40;14.50;;;;;;;20.20;100.00;101338.56;107333;1254;61613;-71
2023/09/15 07:47:58;;;;;;;16.70;13.50;;;;;;;20.28;100.00;101343.81;107308;1253;69929;-70
2023/09/15 07:50:28;;;;;;;16.90;14.00;;;;;;;20.35;100.00;101343.94;107200;1246;74656;-69
2023/09/15 07:52:56;;;;;;;17.40;13.60;;;;;;;20.37;100.00;101342.48;107221;1244;62752;-70
2023/09/15 07:55:26;;;;;;;19.20;14.70;;;;;;;20.41;100.00;101339.12;107260;1245;60146;-70
2023/09/15 07:57:55;;;;;;;19.50;15.20;;;;;;;20.35;100.00;101338.64;107250;1245;71804;-69
2023/09/15 08:00:24;;;;;;;21.20;15.20;;;;;;;20.40;100.00;101337.08;107119;1254;72699;-69
2023/09/15 08:02:53;;;;;;;18.50;14.30;;;;;;;20.44;100.00;101341.43;107153;1254;59969;-69
2023/09/15 08:05:23;;;;;;;18.70;14.90;;;;;;;20.51;100.00;101345.45;107236;1241;74127;-69
2023/09/15 08:07:52;;;;;;;20.80;14.30;;;;;;;20.54;100.00;101347.16;107142;1244;58982;-70
2023/09/15 08:10:23;;;;;;;19.30;14.30;;;;;;;20.46;100.00;101346.55;107279;1241;60880;-70
2023/09/15 08:12:52;;;;;;;16.70;14.20;;;;;;;20.51;100.00;101346.23;107233;1244;62868;-68
2023/09/15 08:15:22;;;;;;;18.10;14.70;;;;;;;20.46;100.00;101347.59;107216;1254;72466;-72
2023/09/15 08:17:52;;;;;;;17.90;14.90;;;;;;;20.35;100.00;101348.16;107192;1252;60681;-72
2023/09/15 08:20:26;;;;;;;20.80;17.30;;;;;;;20.31;100.00;101349.80;107200;1245;62736;-69
2023/09/15 08:22:57;;;;;;;17.20;14.60;;;;;;;20.30;100.00;101347.73;107203;1246;58976;-70
2023/09/15 08:25:26;;;;;;;19.40;15.20;;;;;;;20.33;100.00;101347.98;107223;1252;60106;-71
2023/09/15 08:27:56;;;;;;;18.60;15.40;;;;;;;20.40;100.00;101346.65;107312;1252;72218;-74
2023/09/15 08:30:25;;;;;;;18.90;15.60;;;;;;;20.42;100.00;101346.73;107175;1244;61899;-72
2023/09/15 08:32:54;;;;;;;19.40;15.10;;;;;;;20.57;100.00;101341.70;107143;1241;59897;-70
2023/09/15 08:35:23;;;;;;;18.70;15.70;;;;;;;20.75;100.00;101345.77;107245;1251;62732;-69
2023/09/15 08:37:52;;;;;;;17.00;14.00;;;;;;;20.91;100.00;101344.58;107215;1254;57491;-69
2023/09/15 08:40:21;;;;;;;18.70;15.10;;;;;;;21.03;100.00;101345.08;107256;1245;61838;-69
2023/09/15 08:42:50;;;;;;;16.90;13.90;;;;;;;21.18;100.00;101349.91;107293;1244;74111;-69
2023/09/15 08:45:20;;;;;;;17.90;14.00;;;;;;;21.39;100.00;101351.04;107154;1241;72745;-69
2023/09/15 08:47:54;;;;;;;15.90;13.80;;;;;;;21.53;100.00;101349.13;107185;1247;71257;-70
2023/09/15 08:50:24;;;;;;;16.30;13.60;;;;;;;21.57;100.00;101352.52;107303;1245;64543;-72
2023/09/15 08:52:54;;;;;;;18.20;14.30;;;;;;;21.56;100.00;101350.73;107352;1245;60623;-71
2023/09/15 08:55:23;;;;;;;17.20;14.10;;;;;;;21.63;100.00;101350.83;107443;1242;60328;-71
2023/09/15 08:57:53;;;;;;;15.00;12.60;;;;;;;21.74;100.00;101352.38;107252;1254;73163;-72
2023/09/15 09:00:22;;;;;;;17.50;12.80;;;;;;;21.82;100.00;101350.05;107476;1245;61387;-70
2023/09/15 09:02:53;;;;;;;16.80;14.30;;;;;;;21.69;100.00;101351.27;107200;1245;69769;-70
2023/09/15 09:05:24;;;;;;;16.10;13.00;;;;;;;21.69;100.00;101346.31;107250;1254;73574;-70
2023/09/15 09:07:57;;;;;;;15.80;13.40;;;;;;;21.67;100.00;101347.98;107397;1245;58917;-70
2023/09/15 09:10:26;;;;;;;17.70;14.10;;;;;;;21.94;100.00;101347.79;107365;1244;60335;-70
2023/09/15 09:12:55;;;;;;;18.60;14.60;;;;;;;22.07;100.00;101347.67;107354;1241;71863;-68
2023/09/15 09:15:27;;;;;;;17.90;15.10;;;;;;;22.09;100.00;101348.06;107322;1245;61562;-70
2023/09/15 09:17:56;;;;;;;;;;;;;;;22.27;100.00;101346.14;107289;1241;70448;-68
2023/09/15 09:20:29;;;;;;;20.30;14.90;;;;;;;22.36;100.00;101348.60;107407;1248;74021;-67
2023/09/15 09:22:58;;;;;;;17.30;14.50;;;;;;;22.50;100.00;101348.48;107304;1245;62523;-69
2023/09/15 09:25:33;;;;;;;19.20;13.70;;;;;;;22.73;100.00;101348.29;107433;1241;61372;-68
2023/09/15 09:28:03;;;;;;;15.90;13.70;;;;;;;22.90;100.00;101349.45;107417;1242;73114;-68
2023/09/15 09:30:32;;;;;;;16.70;13.50;;;;;;;22.99;100.00;101348.43;107405;1245;61021;-67
2023/09/15 09:33:02;;;;;;;14.80;13.10;;;;;;;23.08;100.00;101346.17;107198;1248;59953;-68
2023/09/15 09:35:31;;;;;;;16.10;14.00;;;;;;;23.12;100.00;101343.84;107283;1245;72027;-68
2023/09/15 09:38:02;;;;;;;15.30;12.80;;;;;;;23.19;100.00;101344.52;107184;1245;58692;-67
2023/09/15 09:40:34;;;;;;;14.40;12.60;;;;;;;23.23;100.00;101340.86;107248;1244;58684;-69
2023/09/15 09:43:04;;;;;;;14.80;13.10;;;;;;;23.47;100.00;101338.00;107140;1248;62128;-70
2023/09/15 09:45:33;;;;;;;14.20;12.50;;;;;;;23.55;100.00;101337.40;107398;1244;71413;-69
2023/09/15 09:48:04;;;;;;;18.60;16.60;;;;;;;23.66;100.00;101334.91;107146;1245;70663;-69
2023/09/15 09:50:35;;;;;;;17.50;12.70;;;;;;;23.61;100.00;101337.65;107126;1251;63534;-71
2023/09/15 09:53:09;;;;;;;15.00;12.70;;;;;;;23.91;100.00;101334.84;107144;1245;62130;-69
2023/09/15 09:55:44;;;;;;;14.30;12.90;;;;;;;24.12;100.00;101338.14;107144;1241;61596;-69
2023/09/15 09:58:14;;;;;;;15.10;12.80;;;;;;;23.91;100.00;101334.80;107060;1248;62679;-67
2023/09/15 10:00:50;;;;;;;16.00;13.30;;;;;;;23.83;100.00;101331.11;107227;1244;70959;-69
2023/09/15 10:03:21;;;;;;;16.50;14.30;;;;;;;23.60;100.00;101329.69;107281;1246;60229;-69
2023/09/15 10:05:52;;;;;;;14.90;13.20;;;;;;;23.44;100.00;101329.34;107255;1251;63177;-71
2023/09/15 10:08:21;;;;;;;15.60;13.70;;;;;;;23.22;100.00;101329.87;107052;1255;63770;-68
2023/09/15 10:10:53;;;;;;;;;;;;;;;23.12;100.00;101332.77;107152;1244;59409;-68
2023/09/15 10:13:24;;;;;;;16.60;12.90;;;;;;;23.28;100.00;101330.84;107040;1248;73413;-69
2023/09/15 10:23:59;;;;;;;16.40;13.70;;;;;;;23.20;100.00;101338.45;104178;1272;601093;-67
2023/09/15 10:26:30;;;;;;;16.20;14.20;;;;;;;23.27;100.00;101340.88;105674;1262;62661;-67
2023/09/15 10:29:01;;;;;;;15.30;13.60;;;;;;;23.32;100.00;101340.00;106251;1257;62432;-69
2023/09/15 10:31:35;;;;;;;17.00;14.50;;;;;;;23.55;100.00;101338.99;106591;1261;61357;-69
2023/09/15 10:34:05;;;;;;;20.10;14.90;;;;;;;23.74;100.00;101342.25;106560;1253;72285;-68
2023/09/15 10:36:34;;;;;;;17.70;13.80;;;;;;;23.80;100.00;101340.52;106119;1246;383972;-68
2023/09/15 10:39:37;;;;;;;18.40;14.80;;;;;;;23.80;100.00;101338.27;106644;1251;63464;-69
2023/09/15 10:42:15;;;;;;;15.50;13.10;;;;;;;24.06;100.00;101340.85;106712;1246;63024;-68
2023/09/15 10:44:44;;;;;;;16.10;13.50;;;;;;;24.10;100.00;101342.27;106641;1250;61116;-67
2023/09/15 10:47:18;;;;;;;19.20;13.70;;;;;;;24.19;100.00;101337.75;106721;1247;71844;-72
2023/09/15 10:49:54;;;;;;;17.30;13.40;;;;;;;24.15;100.00;101338.46;106792;1250;72722;-67
2023/09/15 10:52:36;;;;;;;16.80;13.50;;;;;;;24.25;100.00;101336.84;106884;1248;71460;-68
2023/09/15 10:55:06;;;;;;;17.10;13.70;;;;;;;24.45;100.00;101332.57;106854;1250;63496;-68
2023/09/15 10:57:36;;;;;;;14.70;13.00;;;;;;;24.22;100.00;101334.26;107032;1246;59040;-67
2023/09/15 11:00:07;;;;;;;15.40;13.50;;;;;;;24.11;100.00;101333.08;106971;1246;59126;-68
2023/09/15 11:02:39;;;;;;;16.00;14.00;;;;;;;24.23;100.00;101334.88;107050;1257;62194;-70
2023/09/15 11:05:09;;;;;;;20.00;14.80;;;;;;;24.24;100.00;101333.13;106979;1247;61618;-71
2023/09/15 11:07:38;;;;;;;14.60;12.70;;;;;;;24.27;100.00;101332.73;106903;1246;71433;-69
2023/09/15 11:10:07;;;;;;;17.20;14.30;;;;;;;23.91;100.00;101334.77;106770;1247;74595;-68
2023/09/15 11:12:36;;;;;;;15.90;13.20;;;;;;;23.93;100.00;101333.23;106850;1247;59025;-68
2023/09/15 11:15:07;;;;;;;17.70;14.50;;;;;;;23.96;100.00;101332.61;106808;1249;58980;-68
2023/09/15 11:17:36;;;;;;;15.80;14.10;;;;;;;24.02;100.00;101332.95;106839;1244;71179;-67